Aviation Digital Data Service (ADDS)

Output produced by METARs form (0927 UTC 18 October 2018)
found at http://www.aviationweather.gov/metar/data/
 
DNAA 180900Z 20006KT 170V240 9999 BKN011 27/22 Q1015 NOSIG
TAF DNAA 180340Z 1806/1912 09005KT 9999 FEW008 
     PROB30 
     TEMPO 1806/1809 5000 BR BKN009 
     BECMG 1809/1811 25010KT BKN010 
     PROB30 
     TEMPO 1815/1821 TS FEW019CB 
     BECMG 1821/1823 FEW008
       
TAF DNAK 180350Z 1806/1912 VRB02KT 5000 BR FEW009 
     BECMG 1808/1810 23010KT 9999 NSW BKN013 FEW020CB 
     TEMPO 1812/1817 TS 
     PROB30 1813/1816 5000 -TSRA BKN009 FEW019CB 
     BECMG 1818/1820 VRB02KT FEW010
       
TAF DNBE 180350Z 1806/1912 VRB02KT 4000 BR FEW009 
     BECMG 1808/1810 22010KT 8000 NSW BKN013 FEW020CB 
     TEMPO 1811/1817 TS 
     PROB30 1812/1816 5000 -TSRA BKN008 FEW018CB 
     BECMG 1818/1820 VRB02KT SCT009
       
TAF DNCA 180330Z 1806/1912 00000KT 5000 BR BKN008 FEW018CB 
     PROB30 
     TEMPO 1806/1808 0800 FG VV/// 
     BECMG 1808/1810 22010KT 8000 NSW BKN011 FEW020CB 
     TEMPO 1811/1814 TS 
     PROB30 1815/1818 5000 -TSRA BKN008 FEW018CB
       
DNEN 180800Z 20003KT 9999 BKN009 26/24 Q1014 NOSIG
TAF DNEN 180330Z 1806/1912 21003KT 7000 TS SCT008 FEW018CB 
     BECMG 1808/1810 27010KT NSW BKN012 FEW021CB 
     PROB30 
     TEMPO 1815/1819 5000 -TSRA BKN008 FEW019CB
       
DNIB 180500Z 09005KT 6000 SCT010 22/22 Q1010
TAF DNIB 180350Z 1806/1912 VRB02KT 5000 BR FEW009 
     BECMG 1808/1810 21010KT 9999 NSW BKN013 FEW020CB 
     PROB30 
     TEMPO 1812/1817 TS 
     BECMG 1818/1820 VRB02KT FEW010
       
DNIL 180700Z 00000KT 9999 SCT009 23/22 Q1013
TAF DNIL 180340Z 1806/1912 00000KT 9999 SCT010 
     PROB30 
     TEMPO 18006/1809 5000 BR BKN008 
     BECMG 1809/1811 22010KT BKN010 
     PROB30 
     TEMPO 1819/1823 TS FEW019CB 
     BECMG 1823/1901 18005KT FEW009
       
DNJO 180700Z 27004KT 0100 FG OBS 20/20 Q1020
TAF DNJO 180340Z 1806/1912 19003KT 9999 SCT004 
     PROB30 
     TEMPO 1806/1809 5000 BR BKN004 
     BECMG 1809/1811 26013KT BKN008 
     PROB30 
     TEMPO 1814/1818 15008KT TS FEW017CB 
     BECMG 1819/1821 FEW006
       
TAF DNKA 180340Z 1806/1912 18002KT CAVOK 
     BECMG 1808/1810 24005KT BKN011 
     PROB30 
     TEMPO 1815/1821 08018KT TS FEW021CB 
     BECMG 1821/1823 FEW009
       
DNKN 180900Z 28008KT CAVOK 30/23 Q1015 NOSIG
TAF DNKN 180340Z 1806/1912 25006KT CAVOK 
     TEMPO 1819/1824 TS FEW019CB
       
DNMM 180900Z 18006KT 9999 SCT012 28/25 Q1014 NOSIG
TAF DNMM 180350Z 1806/1912 VRB02KT 8000 FEW009 
     TEMPO 1806/1807 5000 BR 
     BECMG 1808/1810 22010KT BKN013 FEW020CB 
     TEMPO 1812/1817 TS 
     PROB30 1813/1816 5000 -TSRA BKN009 FEW019CB 
     BECMG 1818/1820 VRB02KT SCT010
       
TAF DNMA 180340Z 1806/1912 27008KT CAVOK
       
DNMN 180800Z 18004KT 9999 SCT010 27/21 Q1009
TAF DNMN 180340Z 1806/1912 14005KT CAVOK 
     BECMG 1808/1810 26010KT BKN010 
     PROB30 
     TEMPO 1817/1823 TS SCT012 FEW020CB 
     BECMG 1823/1902 06007KT FEW008
       
DNPO 180800Z 09005KT 9999 BKN009 28/24 Q1014 NOSIG
TAF DNPO 180330Z 1806/1912 VRB02KT 8000 SCT008 
     TEMPO 1806/1808 3000 BR 
     PROB30 1806/1808 FG VV/// 
     BECMG 1808/1810 24008KT BKN010 FEW020CB 
     TEMPO 1812/1815 TS
       
TAF DNSO 180340Z 1806/1912 26008KT CAVOK 
     TEMPO 1819/1824 TS FEW019CB
       
DNYO 180700Z 33005KT 9999 NSC 28/25 Q1013
TAF DNYO 180340Z 1806/1912 28008KT CAVOK